Time;durP1;ratioP1;P1;durP2;ratioP2;P2;SDS_P1;SDS_P2;PMS_P1;PMS_P2;Temp;Humidity;BMP_temperature;BMP_pressure;BME280_temperature;BME280_humidity;BME280_pressure;Samples;Min_cycle;Max_cycle;Signal;HPM_P1;HPM_P2
2021/03/19 00:01:08;;;;;;;1999.90;999.90;;;5.50;99.90;;;;;;4979633;28;20570;-80
2021/03/19 00:03:33;;;;;;;1999.90;999.90;;;5.50;99.90;;;;;;4979594;28;20187;-80
2021/03/19 00:05:59;;;;;;;1999.90;999.90;;;5.50;99.90;;;;;;4979154;28;20178;-78
2021/03/19 00:08:25;;;;;;;1999.90;999.90;;;5.40;99.90;;;;;;4961543;28;20198;-81
2021/03/19 00:10:52;;;;;;;1999.90;999.90;;;5.30;99.90;;;;;;4979377;28;20654;-81
2021/03/19 00:13:17;;;;;;;1999.90;999.90;;;5.40;99.90;;;;;;4961509;28;20195;-81
2021/03/19 00:15:44;;;;;;;1999.90;999.90;;;5.30;99.90;;;;;;4979373;28;20744;-81
2021/03/19 00:18:09;;;;;;;1999.90;999.90;;;5.30;99.90;;;;;;4979097;28;20534;-81
2021/03/19 00:20:40;;;;;;;1999.90;999.90;;;5.30;99.90;;;;;;4978667;28;20170;-81
2021/03/19 00:23:07;;;;;;;1999.90;999.90;;;5.20;99.90;;;;;;4962092;28;20439;-81
2021/03/19 00:25:33;;;;;;;1999.90;999.90;;;5.20;99.90;;;;;;4979033;28;20202;-81
2021/03/19 00:28:00;;;;;;;1999.90;999.90;;;5.20;99.90;;;;;;4979082;28;20168;-80
2021/03/19 00:30:26;;;;;;;1999.90;999.90;;;5.20;99.90;;;;;;4977463;28;20669;-81
2021/03/19 00:32:52;;;;;;;1999.90;999.90;;;5.10;99.90;;;;;;4978343;28;20163;-81
2021/03/19 00:35:18;;;;;;;1999.90;999.90;;;5.10;99.90;;;;;;4961488;28;20414;-81
2021/03/19 00:37:43;;;;;;;1999.90;999.90;;;5.10;99.90;;;;;;4979283;28;20506;-81
2021/03/19 00:40:11;;;;;;;1999.90;999.90;;;5.00;99.90;;;;;;4979645;28;20402;-81
2021/03/19 00:42:40;;;;;;;1999.90;999.90;;;5.00;99.90;;;;;;4979902;28;20167;-81
2021/03/19 00:45:08;;;;;;;1999.90;999.90;;;5.00;99.90;;;;;;4979719;28;20182;-81
2021/03/19 00:47:34;;;;;;;1999.90;999.90;;;4.90;99.90;;;;;;4979223;28;20171;-81
2021/03/19 00:50:00;;;;;;;1999.90;999.90;;;4.90;99.90;;;;;;4979128;28;20168;-81
2021/03/19 00:52:26;;;;;;;1999.90;999.90;;;4.90;99.90;;;;;;4979560;28;20430;-81
2021/03/19 00:54:51;;;;;;;1999.90;999.90;;;4.80;99.90;;;;;;4980004;28;20206;-81
2021/03/19 00:57:17;;;;;;;1999.90;999.90;;;4.90;99.90;;;;;;4979383;28;20202;-81
2021/03/19 00:59:43;;;;;;;1999.90;999.90;;;4.80;99.90;;;;;;4980606;28;20171;-81
2021/03/19 01:02:09;;;;;;;1999.90;999.90;;;4.80;99.90;;;;;;4980832;28;20160;-81
2021/03/19 01:04:35;;;;;;;1999.90;999.90;;;4.80;99.90;;;;;;4963680;28;20287;-81
2021/03/19 01:07:00;;;;;;;1999.90;999.90;;;4.80;99.90;;;;;;4980469;28;20210;-81
2021/03/19 01:09:26;;;;;;;1999.90;999.90;;;4.80;99.90;;;;;;4981351;28;20411;-81
2021/03/19 01:11:52;;;;;;;1999.90;999.90;;;4.80;99.90;;;;;;4980799;28;20226;-81
2021/03/19 01:14:18;;;;;;;1999.90;999.90;;;4.70;99.90;;;;;;4980257;28;20188;-81
2021/03/19 01:16:43;;;;;;;1999.90;999.90;;;4.60;99.90;;;;;;4982036;28;20195;-81
2021/03/19 01:19:10;;;;;;;1999.90;999.90;;;4.60;99.90;;;;;;4982423;28;20163;-81
2021/03/19 01:21:36;;;;;;;1999.90;999.90;;;4.60;99.90;;;;;;4981770;28;20576;-81
2021/03/19 01:24:02;;;;;;;1999.90;999.90;;;4.50;99.90;;;;;;4982149;28;20191;-79
2021/03/19 01:26:28;;;;;;;1999.90;999.90;;;4.50;99.90;;;;;;4986025;28;20422;-80
2021/03/19 01:28:54;;;;;;;1999.90;999.90;;;4.60;99.90;;;;;;4965600;28;20534;-79
2021/03/19 01:31:20;;;;;;;1999.90;999.90;;;4.60;99.90;;;;;;4962355;28;20171;-81
2021/03/19 01:33:45;;;;;;;1999.90;999.90;;;4.60;99.90;;;;;;4960571;28;20438;-81
2021/03/19 01:36:12;;;;;;;1999.90;999.90;;;4.60;99.90;;;;;;4960450;28;20513;-81
2021/03/19 01:38:39;;;;;;;1999.90;999.90;;;4.50;99.90;;;;;;4961386;28;20170;-81
2021/03/19 01:41:07;;;;;;;1999.90;999.90;;;4.60;99.90;;;;;;4960778;28;20230;-81
2021/03/19 01:43:44;;;;;;;1999.90;999.90;;;4.60;99.90;;;;;;4964154;28;20606;-81
2021/03/19 01:46:47;;;;;;;1999.90;999.90;;;4.60;99.90;;;;;;4964172;28;20198;-81
2021/03/19 01:49:51;;;;;;;1999.90;999.90;;;4.60;99.90;;;;;;4964055;28;20179;-81
2021/03/19 01:52:53;;;;;;;1999.90;999.90;;;4.50;99.90;;;;;;4964730;28;20178;-81
2021/03/19 01:55:57;;;;;;;1999.90;999.90;;;4.50;99.90;;;;;;4963987;28;20178;-81
2021/03/19 01:59:00;;;;;;;1999.90;999.90;;;4.40;99.90;;;;;;4963845;28;20258;-81
2021/03/19 02:02:03;;;;;;;1999.90;999.90;;;4.40;99.90;;;;;;4964114;28;20193;-81
2021/03/19 02:05:06;;;;;;;1999.90;999.90;;;4.30;99.90;;;;;;5027873;23;21639;-80
2021/03/19 02:08:09;;;;;;;1999.90;999.90;;;4.20;99.90;;;;;;4998572;28;20249;-80
2021/03/19 02:11:12;;;;;;;1999.90;999.90;;;4.20;99.90;;;;;;4981122;28;20174;-80
2021/03/19 02:14:16;;;;;;;1999.90;999.90;;;4.20;99.90;;;;;;4981019;28;20281;-80
2021/03/19 02:17:18;;;;;;;1999.90;999.90;;;4.10;99.90;;;;;;4998587;28;20672;-80
2021/03/19 02:20:21;;;;;;;1999.90;999.90;;;3.90;99.90;;;;;;4998325;28;20182;-80
2021/03/19 02:23:24;;;;;;;1999.90;999.90;;;3.80;99.90;;;;;;4998691;28;20162;-80
2021/03/19 02:26:27;;;;;;;1999.90;999.90;;;3.80;99.90;;;;;;4998891;28;20249;-80
2021/03/19 02:29:30;;;;;;;1999.90;999.90;;;3.80;99.90;;;;;;4998378;28;20238;-80
2021/03/19 02:32:05;;;;;;;1999.90;999.90;;;4.00;99.90;;;;;;4980948;28;20180;-80
2021/03/19 02:34:48;;;;;;;1999.90;999.90;;;3.90;99.90;;;;;;4997962;28;20217;-80
2021/03/19 02:37:23;;;;;;;1999.90;999.90;;;4.00;99.90;;;;;;4998062;28;20186;-80
2021/03/19 02:39:49;;;;;;;1999.90;999.90;;;3.90;99.90;;;;;;4980803;28;20183;-80
2021/03/19 02:42:18;;;;;;;1999.90;999.90;;;4.00;99.90;;;;;;4997893;28;20582;-80
2021/03/19 02:44:44;;;;;;;1999.90;999.90;;;4.00;99.90;;;;;;4997832;28;20186;-80
2021/03/19 02:47:10;;;;;;;1999.90;999.90;;;4.00;99.90;;;;;;4998189;28;20665;-80
2021/03/19 02:49:36;;;;;;;1999.90;999.90;;;4.00;99.90;;;;;;4998326;28;20917;-79
2021/03/19 02:52:03;;;;;;;1999.90;999.90;;;4.00;99.90;;;;;;4998018;28;20257;-80
2021/03/19 02:54:29;;;;;;;1999.90;999.90;;;3.90;99.90;;;;;;4979875;28;20194;-80
2021/03/19 02:56:55;;;;;;;1999.90;999.90;;;3.90;99.90;;;;;;4998234;28;20597;-80
2021/03/19 02:59:21;;;;;;;1999.90;999.90;;;3.90;99.90;;;;;;4997659;28;20405;-80
2021/03/19 03:01:47;;;;;;;1999.90;999.90;;;3.90;99.90;;;;;;4979886;28;20170;-80
2021/03/19 03:04:13;;;;;;;1999.90;999.90;;;3.90;99.90;;;;;;4997715;28;20508;-80
2021/03/19 03:06:48;;;;;;;1999.90;999.90;;;3.80;99.90;;;;;;4980714;28;20281;-79
2021/03/19 03:09:21;;;;;;;1999.90;999.90;;;3.70;99.90;;;;;;4998093;28;20154;-80
2021/03/19 03:11:47;;;;;;;1999.90;999.90;;;3.70;99.90;;;;;;4998647;28;20166;-80
2021/03/19 03:14:17;;;;;;;1999.90;999.90;;;3.70;99.90;;;;;;4997714;28;20182;-80
2021/03/19 03:16:43;;;;;;;1999.90;999.90;;;3.70;99.90;;;;;;4998070;28;20580;-80
2021/03/19 03:19:13;;;;;;;1999.90;999.90;;;3.70;99.90;;;;;;4997646;28;20532;-80
2021/03/19 03:21:39;;;;;;;1999.90;999.90;;;3.70;99.90;;;;;;4997604;28;20158;-80
2021/03/19 03:24:06;;;;;;;1999.90;999.90;;;3.80;99.90;;;;;;4997844;28;20178;-80
2021/03/19 03:26:32;;;;;;;1999.90;999.90;;;3.70;99.90;;;;;;4979904;28;20174;-80
2021/03/19 03:28:58;;;;;;;1999.90;999.90;;;3.70;99.90;;;;;;4997647;28;20163;-80
2021/03/19 03:31:24;;;;;;;1999.90;999.90;;;3.60;99.90;;;;;;4996847;28;20253;-81
2021/03/19 03:33:50;;;;;;;1999.90;999.90;;;3.50;99.90;;;;;;4997328;28;20227;-80
2021/03/19 03:36:16;;;;;;;1999.90;999.90;;;3.40;99.90;;;;;;4979453;28;20448;-81
2021/03/19 03:38:41;;;;;;;1999.90;999.90;;;3.40;99.90;;;;;;4997286;28;20171;-80
2021/03/19 03:41:14;;;;;;;1999.90;999.90;;;3.40;99.90;;;;;;4979367;28;20257;-80
2021/03/19 03:43:39;;;;;;;1999.90;999.90;;;3.40;99.90;;;;;;4979512;28;20190;-80
2021/03/19 03:46:07;;;;;;;1999.90;999.90;;;3.50;99.90;;;;;;4996995;28;20173;-80
2021/03/19 03:48:34;;;;;;;1999.90;999.90;;;3.50;99.90;;;;;;4996831;28;20256;-81
2021/03/19 03:51:02;;;;;;;1999.90;999.90;;;3.50;99.90;;;;;;4997232;28;20203;-80
2021/03/19 03:53:28;;;;;;;1999.90;999.90;;;3.50;99.90;;;;;;4979315;28;20186;-80
2021/03/19 03:55:57;;;;;;;1999.90;999.90;;;3.50;99.90;;;;;;4996932;28;20191;-81
2021/03/19 03:58:23;;;;;;;1999.90;999.90;;;3.40;99.90;;;;;;4979226;28;20410;-80
2021/03/19 04:00:49;;;;;;;1999.90;999.90;;;3.40;99.90;;;;;;4996851;28;20198;-81
2021/03/19 04:03:14;;;;;;;1999.90;999.90;;;3.40;99.90;;;;;;4996874;28;20681;-80
2021/03/19 04:05:44;;;;;;;1999.90;999.90;;;3.40;99.90;;;;;;4996958;28;20189;-80
2021/03/19 04:08:13;;;;;;;1999.90;999.90;;;3.40;99.90;;;;;;4979407;28;20418;-80
2021/03/19 04:10:39;;;;;;;1999.90;999.90;;;3.40;99.90;;;;;;4979176;28;20250;-80
2021/03/19 04:13:06;;;;;;;1999.90;999.90;;;3.40;99.90;;;;;;4979351;28;20191;-80
2021/03/19 04:15:33;;;;;;;1999.90;999.90;;;3.40;99.90;;;;;;4996941;28;20170;-81
2021/03/19 04:18:01;;;;;;;1999.90;999.90;;;3.40;99.90;;;;;;4997249;28;20566;-80
2021/03/19 04:20:27;;;;;;;1999.90;999.90;;;3.40;99.90;;;;;;4979336;28;20166;-80
2021/03/19 04:22:54;;;;;;;1999.90;999.90;;;3.40;99.90;;;;;;4996466;28;20167;-80
2021/03/19 04:25:20;;;;;;;1999.90;999.90;;;3.40;99.90;;;;;;4996874;28;20622;-80
2021/03/19 04:27:50;;;;;;;1999.90;999.90;;;3.30;99.90;;;;;;4979553;28;20170;-81
2021/03/19 04:30:20;;;;;;;1999.90;999.90;;;3.30;99.90;;;;;;4997283;28;20209;-81
2021/03/19 04:32:46;;;;;;;1999.90;999.90;;;3.30;99.90;;;;;;4996899;28;20488;-80
2021/03/19 04:35:12;;;;;;;1999.90;999.90;;;3.20;99.90;;;;;;4979373;28;20273;-81
2021/03/19 04:37:38;;;;;;;1999.90;999.90;;;3.30;99.90;;;;;;4979254;28;20194;-80
2021/03/19 04:40:04;;;;;;;1999.90;999.90;;;3.30;99.90;;;;;;4996718;28;20205;-81
2021/03/19 04:42:31;;;;;;;1999.90;999.90;;;3.30;99.90;;;;;;4996827;28;20308;-81
2021/03/19 04:44:58;;;;;;;1999.90;999.90;;;3.20;99.90;;;;;;4996675;28;20189;-81
2021/03/19 04:47:24;;;;;;;1999.90;999.90;;;3.20;99.90;;;;;;4995660;28;20249;-81
2021/03/19 04:49:50;;;;;;;1999.90;999.90;;;3.10;99.90;;;;;;4996772;28;20257;-81
2021/03/19 04:52:15;;;;;;;1999.90;999.90;;;3.10;99.90;;;;;;4996518;28;20261;-80
2021/03/19 04:54:43;;;;;;;1999.90;999.90;;;3.10;99.90;;;;;;4996290;28;20665;-80
2021/03/19 04:57:10;;;;;;;1999.90;999.90;;;3.20;99.90;;;;;;4979688;28;20293;-80
2021/03/19 04:59:36;;;;;;;1999.90;999.90;;;3.20;99.90;;;;;;4978912;28;20638;-80
2021/03/19 05:02:02;;;;;;;1999.90;999.90;;;3.20;99.90;;;;;;4997219;28;20176;-81
2021/03/19 05:04:31;;;;;;;1999.90;999.90;;;3.20;99.90;;;;;;4997027;28;20179;-81
2021/03/19 05:07:08;;;;;;;1999.90;999.90;;;3.10;99.90;;;;;;4996933;28;20758;-81
2021/03/19 05:09:34;;;;;;;1999.90;999.90;;;3.00;99.90;;;;;;4997160;28;20213;-81
2021/03/19 05:12:03;;;;;;;1999.90;999.90;;;3.10;99.90;;;;;;4980788;28;20638;-81
2021/03/19 05:14:36;;;;;;;1999.90;999.90;;;3.10;99.90;;;;;;4997111;28;20230;-81
2021/03/19 05:17:04;;;;;;;1999.90;999.90;;;3.00;99.90;;;;;;4997466;28;20182;-81
2021/03/19 05:19:30;;;;;;;1999.90;999.90;;;3.00;99.90;;;;;;5001118;28;20159;-81
2021/03/19 05:21:59;;;;;;;1999.90;999.90;;;3.00;99.90;;;;;;5001084;28;20626;-81
2021/03/19 05:24:28;;;;;;;1999.90;999.90;;;2.90;99.90;;;;;;5000935;28;20197;-81
2021/03/19 05:26:53;;;;;;;1999.90;999.90;;;2.90;99.90;;;;;;4983211;28;20167;-81
2021/03/19 05:29:19;;;;;;;1999.90;999.90;;;2.90;99.90;;;;;;5000413;28;20233;-81
2021/03/19 05:31:45;;;;;;;1999.90;999.90;;;2.80;99.90;;;;;;5000984;28;20166;-81
2021/03/19 05:34:12;;;;;;;1999.90;999.90;;;2.70;99.90;;;;;;5000653;28;20661;-81
2021/03/19 05:36:38;;;;;;;1999.90;999.90;;;2.70;99.90;;;;;;5000088;28;20210;-81
2021/03/19 05:39:04;;;;;;;1999.90;999.90;;;2.70;99.90;;;;;;5000463;28;20569;-81
2021/03/19 05:41:33;;;;;;;1999.90;999.90;;;2.70;99.90;;;;;;4983004;28;20198;-81
2021/03/19 05:44:13;;;;;;;1999.90;999.90;;;2.70;99.90;;;;;;4982585;28;20197;-81
2021/03/19 05:46:46;;;;;;;1999.90;999.90;;;2.60;99.90;;;;;;5000847;28;20177;-81
2021/03/19 05:49:29;;;;;;;1999.90;999.90;;;2.60;99.90;;;;;;4982693;28;20206;-81
2021/03/19 05:52:21;;;;;;;1999.90;999.90;;;2.60;99.90;;;;;;4982602;28;20501;-81
2021/03/19 05:54:48;;;;;;;1999.90;999.90;;;2.70;99.90;;;;;;5000261;28;20696;-81
2021/03/19 05:57:21;;;;;;;1999.90;999.90;;;2.70;99.90;;;;;;4982530;28;20194;-81
2021/03/19 05:59:49;;;;;;;1999.90;999.90;;;2.60;99.90;;;;;;4982880;28;20155;-81
2021/03/19 06:02:33;;;;;;;1999.90;999.90;;;2.70;99.90;;;;;;4999427;28;20741;-81
2021/03/19 06:05:28;;;;;;;1999.90;999.90;;;2.60;99.90;;;;;;5000205;28;20569;-81
2021/03/19 06:08:07;;;;;;;1999.90;999.90;;;2.70;99.90;;;;;;5000482;28;20158;-81
2021/03/19 06:10:40;;;;;;;1999.90;999.90;;;2.60;99.90;;;;;;4999890;28;20147;-81
2021/03/19 06:13:45;;;;;;;1999.90;999.90;;;2.60;99.90;;;;;;4982645;28;20191;-81
2021/03/19 06:16:26;;;;;;;1999.90;999.90;;;2.60;99.90;;;;;;4983336;28;20654;-81
2021/03/19 06:18:53;;;;;;;1999.90;999.90;;;2.70;99.90;;;;;;4999591;28;20150;-81
2021/03/19 06:21:19;;;;;;;1999.90;999.90;;;2.80;99.90;;;;;;5000199;28;20178;-81
2021/03/19 06:24:18;;;;;;;1999.90;999.90;;;2.90;99.90;;;;;;4999898;28;20187;-81
2021/03/19 06:27:09;;;;;;;1999.90;999.90;;;3.00;99.90;;;;;;4999915;28;20175;-81
2021/03/19 06:29:49;;;;;;;1999.90;999.90;;;2.90;99.90;;;;;;4998092;28;20166;-81
2021/03/19 06:32:20;;;;;;;1999.90;999.90;;;3.00;99.90;;;;;;4999873;28;20182;-80
2021/03/19 06:35:09;;;;;;;1999.90;999.90;;;3.00;99.90;;;;;;4999049;28;20194;-81
2021/03/19 06:37:39;;;;;;;1999.90;999.90;;;3.10;99.90;;;;;;4981479;28;20210;-81
2021/03/19 06:40:31;;;;;;;1999.90;999.90;;;3.20;99.90;;;;;;4999134;28;20628;-81
2021/03/19 06:43:22;;;;;;;1999.90;999.90;;;3.20;99.90;;;;;;4999216;28;20159;-81
2021/03/19 06:46:19;;;;;;;1999.90;999.90;;;3.30;99.90;;;;;;4999379;28;20159;-80
2021/03/19 06:49:03;;;;;;;1999.90;999.90;;;3.30;99.90;;;;;;4982288;28;20579;-81
2021/03/19 06:51:41;;;;;;;1999.90;999.90;;;3.40;99.90;;;;;;4981707;28;20171;-80
2021/03/19 06:54:10;;;;;;;1999.90;999.90;;;3.30;99.90;;;;;;4998938;28;20213;-81
2021/03/19 06:56:37;;;;;;;1999.90;999.90;;;3.40;99.90;;;;;;4981107;28;20203;-81
2021/03/19 06:59:23;;;;;;;1999.90;999.90;;;3.50;99.90;;;;;;4998984;28;20499;-81
2021/03/19 07:01:49;;;;;;;1999.90;999.90;;;3.50;99.90;;;;;;4998272;28;20701;-81
2021/03/19 07:04:37;;;;;;;1999.90;999.90;;;3.50;99.90;;;;;;4998864;28;20190;-82
2021/03/19 07:07:30;;;;;;;1999.90;999.90;;;3.50;99.90;;;;;;4952673;28;20418;-83
2021/03/19 07:10:23;;;;;;;1999.90;999.90;;;3.50;99.90;;;;;;4998897;28;20151;-83
2021/03/19 07:13:15;;;;;;;1999.90;999.90;;;3.50;99.90;;;;;;4980758;28;20163;-83
2021/03/19 07:15:54;;;;;;;1999.90;999.90;;;3.60;99.90;;;;;;4981209;28;20213;-83
2021/03/19 07:19:17;;;;;;;1999.90;999.90;;;3.60;99.90;;;;;;4998169;28;20370;-82
2021/03/19 07:22:03;;;;;;;1999.90;999.90;;;3.50;99.90;;;;;;4921071;29;20653;-83
2021/03/19 07:24:35;;;;;;;1999.90;999.90;;;3.60;99.90;;;;;;4920057;29;20324;-82
2021/03/19 07:27:19;;;;;;;1999.90;999.90;;;3.60;99.90;;;;;;4981411;28;20280;-82
2021/03/19 07:29:50;;;;;;;1999.90;999.90;;;3.70;99.90;;;;;;4981437;28;20585;-83
2021/03/19 07:32:18;;;;;;;1999.90;999.90;;;3.80;99.90;;;;;;4998907;28;20147;-83
2021/03/19 07:35:20;;;;;;;1999.90;999.90;;;3.80;99.90;;;;;;4998076;28;20186;-82
2021/03/19 07:37:57;;;;;;;1999.90;999.90;;;3.80;99.90;;;;;;4998757;28;20186;-82
2021/03/19 07:40:32;;;;;;;1999.90;999.90;;;3.80;99.90;;;;;;4981317;28;20169;-82
2021/03/19 07:43:27;;;;;;;1999.90;999.90;;;3.90;99.90;;;;;;4997974;28;20154;-82
2021/03/19 07:46:25;;;;;;;1999.90;999.90;;;3.90;99.90;;;;;;4979830;28;20719;-82
2021/03/19 07:49:27;;;;;;;1999.90;999.90;;;3.90;99.90;;;;;;4997654;28;20158;-82
2021/03/19 07:52:39;;;;;;;1999.90;999.90;;;3.90;99.90;;;;;;4997889;28;20164;-81
2021/03/19 07:55:29;;;;;;;1999.90;999.90;;;3.90;99.90;;;;;;4979622;28;20617;-82
2021/03/19 07:57:55;;;;;;;1999.90;999.90;;;4.00;99.90;;;;;;4977962;28;20167;-79
2021/03/19 08:00:34;;;;;;;1999.90;999.90;;;4.10;99.90;;;;;;4997003;28;20174;-79
2021/03/19 08:03:03;;;;;;;1999.90;999.90;;;4.10;99.90;;;;;;4996078;28;20609;-80
2021/03/19 08:05:51;;;;;;;1999.90;999.90;;;4.10;99.90;;;;;;4996847;28;20189;-80
2021/03/19 08:08:39;;;;;;;1999.90;999.90;;;4.20;99.90;;;;;;4997745;28;20147;-80
2021/03/19 08:11:41;;;;;;;1999.90;999.90;;;4.30;99.90;;;;;;4979813;28;20180;-82
2021/03/19 08:14:28;;;;;;;1999.90;999.90;;;4.30;99.90;;;;;;4939217;28;20224;-80
2021/03/19 08:17:08;;;;;;;1999.90;999.90;;;4.30;99.90;;;;;;4997016;28;20182;-79
2021/03/19 08:19:39;;;;;;;1999.90;999.90;;;4.30;99.90;;;;;;4997354;28;20157;-80
2021/03/19 08:32:54;;;;;;;1999.90;999.90;;;4.50;99.90;;;;;;5005562;23;20218;-81
2021/03/19 08:36:20;;;;;;;1999.90;999.90;;;4.50;99.90;;;;;;4979610;28;20185;-81
2021/03/19 08:39:11;;;;;;;1999.90;999.90;;;4.50;99.90;;;;;;4902279;29;20201;-80
2021/03/19 08:41:49;;;;;;;1999.90;999.90;;;4.60;99.90;;;;;;4950288;28;20175;-82
2021/03/19 08:44:47;;;;;;;1999.90;999.90;;;4.60;99.90;;;;;;4979234;28;20179;-82
2021/03/19 08:47:58;;;;;;;1999.90;999.90;;;4.60;99.90;;;;;;4979782;28;20194;-82
2021/03/19 08:50:46;;;;;;;1999.90;999.90;;;4.60;99.90;;;;;;4961911;28;20202;-82
2021/03/19 08:53:27;;;;;;;1999.90;999.90;;;4.60;99.90;;;;;;4965045;28;20199;-79
2021/03/19 08:56:10;;;;;;;1999.90;999.90;;;4.70;99.90;;;;;;4966486;28;20238;-82
2021/03/19 09:02:37;;;;;;;1999.90;999.90;;;4.70;99.90;;;;;;4916681;29;20173;-82
2021/03/19 09:08:56;;;;;;;1999.90;999.90;;;4.70;99.90;;;;;;4922225;29;20289;-82
2021/03/19 09:11:46;;;;;;;1999.90;999.90;;;4.80;99.90;;;;;;4931783;28;20177;-82
2021/03/19 09:14:24;;;;;;;1999.90;999.90;;;4.90;99.90;;;;;;4965570;28;20317;-82
2021/03/19 09:16:57;;;;;;;1999.90;999.90;;;5.00;99.90;;;;;;4982826;28;20187;-82
2021/03/19 09:19:32;;;;;;;1999.90;999.90;;;5.10;99.90;;;;;;4983401;28;20652;-82
2021/03/19 09:22:24;;;;;;;1999.90;999.90;;;5.20;99.90;;;;;;4983222;28;20167;-82
2021/03/19 09:25:08;;;;;;;1999.90;999.90;;;5.20;99.90;;;;;;4984843;28;20266;-80
2021/03/19 09:28:06;;;;;;;1999.90;999.90;;;5.30;99.90;;;;;;4965333;28;20643;-82
2021/03/19 09:31:39;;;;;;;1999.90;999.90;;;5.40;99.90;;;;;;4962869;28;20222;-82
2021/03/19 09:35:03;;;;;;;1999.90;999.90;;;5.50;99.90;;;;;;4959759;29;20218;-82
2021/03/19 09:37:46;;;;;;;1999.90;999.90;;;5.50;99.90;;;;;;4939266;28;20223;-81
2021/03/19 09:44:38;;;;;;;1999.90;999.90;;;5.50;97.20;;;;;;4906536;29;20664;-82
2021/03/19 09:50:31;;;;;;;1999.90;999.90;;;5.80;96.70;;;;;;4919798;29;20173;-82
2021/03/19 09:53:06;;;;;;;1999.90;999.90;;;6.00;94.70;;;;;;4906522;29;20252;-82
2021/03/19 09:56:01;;;;;;;1999.90;999.90;;;6.10;93.30;;;;;;4906692;29;20197;-79
2021/03/19 09:58:38;;;;;;;1999.90;999.90;;;6.20;87.40;;;;;;4904105;29;20683;-81
2021/03/19 10:01:31;;;;;;;1999.90;999.90;;;6.20;84.20;;;;;;4920843;29;20215;-79
2021/03/19 10:04:04;;;;;;;1999.90;999.90;;;6.20;83.50;;;;;;4925334;28;20194;-78
2021/03/19 10:06:48;;;;;;;1999.90;999.90;;;6.30;80.40;;;;;;4980662;28;20214;-79
2021/03/19 10:09:23;;;;;;;1999.90;999.90;;;6.40;76.00;;;;;;4980966;28;20179;-78
2021/03/19 10:11:55;;;;;;;1999.90;999.90;;;6.40;65.80;;;;;;4963561;28;20167;-78
2021/03/19 10:14:34;;;;;;;1999.90;999.90;;;6.20;50.50;;;;;;4981035;28;20191;-78
2021/03/19 10:17:26;;;;;;;1999.90;999.90;;;6.20;54.30;;;;;;4980783;28;20184;-78
2021/03/19 10:20:16;;;;;;;1999.90;999.90;;;6.20;54.30;;;;;;4980934;28;20199;-79
2021/03/19 10:22:46;;;;;;;1999.90;999.90;;;6.30;53.50;;;;;;4979997;28;20152;-79
2021/03/19 10:25:12;;;;;;;1999.90;999.90;;;6.50;50.90;;;;;;4963631;28;20163;-79
2021/03/19 10:27:51;;;;;;;1999.90;999.90;;;6.60;54.60;;;;;;4980438;28;20250;-79
2021/03/19 10:30:22;;;;;;;1999.90;999.90;;;6.60;47.50;;;;;;4981503;28;20158;-78
2021/03/19 10:32:51;;;;;;;1999.90;999.90;;;6.80;49.00;;;;;;4981560;28;20579;-79
2021/03/19 10:35:20;;;;;;;1999.90;999.90;;;7.10;46.50;;;;;;4980693;28;20155;-79
2021/03/19 10:38:11;;;;;;;1999.90;999.90;;;7.30;31.50;;;;;;4980536;28;20195;-79
2021/03/19 10:40:38;;;;;;;1999.90;999.90;;;7.50;34.60;;;;;;4980348;28;20240;-78
2021/03/19 10:43:27;;;;;;;1999.90;999.90;;;7.60;23.10;;;;;;4980434;28;20704;-79
2021/03/19 10:45:54;;;;;;;1999.90;999.90;;;7.50;16.70;;;;;;4962969;28;20156;-78
2021/03/19 10:48:29;;;;;;;1999.90;999.90;;;7.60;16.10;;;;;;4963281;28;20697;-80
2021/03/19 10:51:19;;;;;;;1999.90;999.90;;;7.70;14.30;;;;;;4980508;28;20171;-80
2021/03/19 10:53:48;;;;;;;1999.90;999.90;;;7.50;10.90;;;;;;4980573;28;20820;-82
2021/03/19 10:56:14;;;;;;;1999.90;999.90;;;7.50;13.00;;;;;;4980840;28;20678;-80
2021/03/19 10:59:17;;;;;;;1999.90;999.90;;;7.50;10.80;;;;;;4980226;28;20159;-81
2021/03/19 11:01:46;;;;;;;1999.90;999.90;;;7.70;12.30;;;;;;4959114;28;20175;-81
2021/03/19 11:04:32;;;;;;;1999.90;999.90;;;7.70;9.10;;;;;;4980309;28;20198;-80
2021/03/19 11:07:19;;;;;;;1999.90;999.90;;;7.70;7.60;;;;;;4964639;28;20160;-80
2021/03/19 11:10:05;;;;;;;1999.90;999.90;;;7.70;6.90;;;;;;4970434;28;20183;-80
2021/03/19 11:12:38;;;;;;;1999.90;999.90;;;7.50;7.20;;;;;;4963647;28;20171;-80
2021/03/19 11:15:12;;;;;;;1999.90;999.90;;;7.70;8.30;;;;;;4962689;28;20197;-80
2021/03/19 11:17:39;;;;;;;1999.90;999.90;;;7.70;8.60;;;;;;4980460;28;20257;-80
2021/03/19 11:20:20;;;;;;;1999.90;999.90;;;7.90;13.80;;;;;;4980356;28;20167;-80
2021/03/19 11:22:48;;;;;;;1999.90;999.90;;;8.40;11.20;;;;;;4981318;28;20208;-81
2021/03/19 11:25:20;;;;;;;1999.90;999.90;;;8.70;10.10;;;;;;4963587;28;20178;-81
2021/03/19 11:27:46;;;;;;;1999.90;999.90;;;9.10;7.60;;;;;;4981120;28;20175;-81
2021/03/19 11:30:24;;;;;;;1999.90;999.90;;;8.60;8.40;;;;;;4979918;28;20234;-80
2021/03/19 11:33:08;;;;;;;1999.90;999.90;;;8.70;6.00;;;;;;4980409;28;20190;-80
2021/03/19 11:35:38;;;;;;;1999.90;999.90;;;8.60;7.20;;;;;;4980541;28;20217;-80
2021/03/19 11:38:37;;;;;;;1999.90;999.90;;;8.60;4.70;;;;;;4979847;28;20175;-81
2021/03/19 11:41:31;;;;;;;1999.90;999.90;;;8.60;2.10;;;;;;4980295;28;20151;-80
2021/03/19 11:43:58;;;;;;;1999.90;999.90;;;8.30;1.00;;;;;;4980506;28;20262;-80
2021/03/19 11:46:25;;;;;;;1999.90;999.90;;;8.30;1.00;;;;;;4980554;28;20628;-80
2021/03/19 11:48:50;;;;;;;1999.90;999.90;;;8.50;1.00;;;;;;4980370;28;20697;-81
2021/03/19 11:51:31;;;;;;;1999.90;999.90;;;8.70;1.80;;;;;;4980466;28;20175;-80
2021/03/19 11:54:01;;;;;;;1999.90;999.90;;;8.60;2.00;;;;;;4980231;28;20426;-81
2021/03/19 11:56:29;;;;;;;1999.90;999.90;;;8.40;1.00;;;;;;4980732;28;20195;-80
2021/03/19 11:58:59;;;;;;;1999.90;999.90;;;8.40;2.70;;;;;;4979947;28;20186;-80
2021/03/19 12:01:28;;;;;;;1999.90;999.90;;;8.40;1.00;;;;;;4979688;28;20527;-80
2021/03/19 12:03:54;;;;;;;1999.90;999.90;;;8.40;1.00;;;;;;4980296;28;20543;-80
2021/03/19 12:06:23;;;;;;;1999.90;999.90;;;8.70;1.00;;;;;;4980146;28;20251;-80
2021/03/19 12:08:50;;;;;;;1999.90;999.90;;;8.90;1.00;;;;;;4979929;28;20214;-81
2021/03/19 12:11:28;;;;;;;1999.90;999.90;;;9.20;1.00;;;;;;4979432;28;20171;-80
2021/03/19 12:13:55;;;;;;;1999.90;999.90;;;9.60;1.00;;;;;;4962111;28;20195;-81
2021/03/19 12:16:21;;;;;;;1999.90;999.90;;;9.60;1.00;;;;;;4980151;28;20195;-81
2021/03/19 12:18:47;;;;;;;1999.90;999.90;;;9.00;1.00;;;;;;4979610;28;20173;-81
2021/03/19 12:21:13;;;;;;;1999.90;999.90;;;9.00;1.00;;;;;;4979433;28;20163;-80
2021/03/19 12:23:39;;;;;;;1999.90;999.90;;;9.20;1.00;;;;;;4979764;28;20180;-81
2021/03/19 12:26:05;;;;;;;1999.90;999.90;;;9.20;1.00;;;;;;4961789;28;20181;-81
2021/03/19 12:28:31;;;;;;;1999.90;999.90;;;9.20;1.00;;;;;;4979155;28;20175;-81
2021/03/19 12:30:58;;;;;;;1999.90;999.90;;;9.10;1.00;;;;;;4963612;28;20230;-81
2021/03/19 12:33:29;;;;;;;1999.90;999.90;;;9.10;1.00;;;;;;4979559;28;20218;-80
2021/03/19 12:35:54;;;;;;;1999.90;999.90;;;9.10;1.00;;;;;;4979795;28;20166;-80
2021/03/19 12:38:23;;;;;;;1999.90;999.90;;;8.90;1.00;;;;;;4961702;28;20262;-79
2021/03/19 12:40:49;;;;;;;1999.90;999.90;;;9.00;1.00;;;;;;4978465;28;20502;-80
2021/03/19 12:43:15;;;;;;;1999.90;999.90;;;8.90;1.00;;;;;;4979356;28;20225;-80
2021/03/19 12:45:42;;;;;;;1999.90;999.90;;;9.10;1.00;;;;;;4979671;28;20166;-79
2021/03/19 12:48:08;;;;;;;1999.90;999.90;;;9.20;1.00;;;;;;4980108;28;20171;-80
2021/03/19 12:50:34;;;;;;;1999.90;999.90;;;9.00;1.00;;;;;;4979647;28;20191;-81
2021/03/19 12:53:02;;;;;;;1999.90;999.90;;;8.60;1.00;;;;;;4980170;28;20169;-80
2021/03/19 12:55:30;;;;;;;1999.90;999.90;;;8.70;1.00;;;;;;4979931;28;20570;-79
2021/03/19 12:57:56;;;;;;;1999.90;999.90;;;8.80;1.00;;;;;;4962307;28;20290;-79
2021/03/19 13:00:25;;;;;;;1999.90;999.90;;;9.00;1.00;;;;;;4961809;28;20198;-79
2021/03/19 13:02:51;;;;;;;1999.90;999.90;;;8.90;1.00;;;;;;4979680;28;20160;-79
2021/03/19 13:05:20;;;;;;;1999.90;999.90;;;8.80;1.00;;;;;;4979504;28;20174;-79
2021/03/19 13:07:46;;;;;;;1999.90;999.90;;;9.00;1.00;;;;;;4979746;28;20887;-80
2021/03/19 13:10:13;;;;;;;1999.90;999.90;;;8.90;1.00;;;;;;4979500;28;20167;-81
2021/03/19 13:12:39;;;;;;;1999.90;999.90;;;9.10;1.00;;;;;;4979242;28;20171;-81
2021/03/19 13:15:11;;;;;;;1999.90;999.90;;;9.00;1.00;;;;;;4982905;28;20191;-81
2021/03/19 13:17:37;;;;;;;1999.90;999.90;;;9.20;1.00;;;;;;4964414;28;20215;-80